Impacts TAF Board
For situational awareness. Not to be used for flight planning purposes.
IDs:

KCSM - Clinton/Sherman Arpt, OK, US

Issued at 1122 UTC 03 Dec 2021
Updated at 1702 UTC 03 Dec 2021
Potential Impact None Slight Moderate High
Time1653Z 03/18Z 03/19Z 03/20Z 03/21Z 03/22Z 03/23Z 04/00Z 04/01Z 04/02Z 04/03Z 04/04Z 04/05Z 04/06Z>>
Type OBS PRVL PRVL PRVL PRVL PRVL PRVL PRVL PRVL PRVL PRVL PRVL PRVL PRVL
VIS 10 >6 >6 >6 >6 >6 >6 >6 >6 >6 >6 >6 >6 >6
CIG -- -- -- -- -- -- -- -- -- -- 250 250 250 250
Cover CLR SCT SCT SCT SCT SCT FEW FEW FEW FEW BKN BKN BKN BKN
FltCat VFR VFR VFR VFR VFR VFR VFR VFR VFR VFR VFR VFR VFR VFR
WX -- -- -- -- -- -- -- -- -- -- -- -- -- --
WDir 240 220 220 220 220 220 50 50 50 50 10 10 10 10
WSpd 9 11 11 11 11 11 10 10 10 10 15 15 15 15
WGst -- -- -- -- -- -- -- -- -- -- 22 22 22 22
WSHgt -- -- -- -- -- -- -- -- -- -- -- -- -- --
WSDir -- -- -- -- -- -- -- -- -- -- -- -- -- --
WSSpd -- -- -- -- -- -- -- -- -- -- -- -- -- --
R17/35
XWnd -8 -7 -7 -7 -7 -7 8 8 8 8 3 3 3 3
XGst -- -- -- -- -- -- -- -- -- -- 4 4 4 4
HWnd 5 8 8 8 8 8 -6 -6 -6 -6 -15 -15 -15 -15
HGst -- -- -- -- -- -- -- -- -- -- -22 -22 -22 -22
Raw TAF
KCSM 031122Z 0312/0412 22011KT P6SM SCT250
  FM032300 05010KT P6SM FEW250
  FM040300 01015G22KT P6SM BKN250


Raw METAR
KCSM 031653Z 24009KT 10SM CLR 20/02 A2997 RMK AO2 SLP140 T02000017 $
KCSM 031553Z 23011KT 10SM CLR 17/02 A2996 RMK AO2 SLP137 T01670022 $
KCSM 031453Z 23012KT 10SM CLR 12/02 A2995 RMK AO2 SLP136 T01220017 51009 $

METAR Board
Radar Display
Forecast Discussion
For situational awareness. Not to be used for flight planning purposes.